createdAt,value
2018-02-18T00:01:18.959Z,35.23
2018-02-18T00:03:46.560Z,32.27
2018-02-18T00:06:14.202Z,32.00
2018-02-18T00:08:41.772Z,32.40
2018-02-18T00:11:09.333Z,32.90
2018-02-18T00:13:36.960Z,30.70
2018-02-18T00:16:04.529Z,33.77
2018-02-18T00:18:32.105Z,32.47
2018-02-18T00:20:59.728Z,30.83
2018-02-18T00:23:27.353Z,33.30
2018-02-18T00:25:55.712Z,32.73
2018-02-18T00:28:23.344Z,31.83
2018-02-18T00:30:50.946Z,31.83
2018-02-18T00:33:18.540Z,32.40
2018-02-18T00:35:46.125Z,34.73
2018-02-18T00:38:13.687Z,35.20
2018-02-18T00:40:41.265Z,32.43
2018-02-18T00:43:08.850Z,34.37
2018-02-18T00:45:36.462Z,36.13
2018-02-18T00:48:04.031Z,34.00
2018-02-18T00:50:31.612Z,31.50
2018-02-18T00:52:59.234Z,34.23
2018-02-18T00:55:26.803Z,34.47
2018-02-18T00:57:54.389Z,30.50
2018-02-18T01:00:21.956Z,31.70
2018-02-18T01:02:49.538Z,32.37
2018-02-18T01:05:17.874Z,32.90
2018-02-18T01:07:45.479Z,33.07
2018-02-18T01:10:13.821Z,32.90
2018-02-18T01:12:41.424Z,33.30
2018-02-18T01:15:09.782Z,35.80
2018-02-18T01:17:37.343Z,33.73
2018-02-18T01:20:04.938Z,33.33
2018-02-18T01:22:32.520Z,33.80
2018-02-18T01:25:00.136Z,31.33
2018-02-18T01:27:28.480Z,33.30
2018-02-18T01:29:56.044Z,36.17
2018-02-18T01:32:23.647Z,31.70
2018-02-18T01:34:51.214Z,31.27
2018-02-18T01:37:18.826Z,30.97
2018-02-18T01:39:46.404Z,32.67
2018-02-18T01:42:14.768Z,32.90
2018-02-18T01:44:42.372Z,32.73
2018-02-18T01:47:09.978Z,33.23
2018-02-18T01:49:38.533Z,32.30
2018-02-18T01:52:06.097Z,30.10
2018-02-18T01:54:33.678Z,30.20
2018-02-18T01:57:01.262Z,30.00
2018-02-18T01:59:28.862Z,30.10
2018-02-18T02:01:56.457Z,31.40
2018-02-18T02:04:24.040Z,32.73
2018-02-18T02:06:51.597Z,31.97
2018-02-18T02:09:19.196Z,31.87
2018-02-18T02:11:46.800Z,30.50
2018-02-18T02:14:14.381Z,29.00
2018-02-18T02:16:41.973Z,32.83
2018-02-18T02:19:09.556Z,31.33
2018-02-18T02:21:37.179Z,28.70
2018-02-18T02:24:05.532Z,31.47
2018-02-18T02:26:33.106Z,30.87
2018-02-18T02:29:00.695Z,31.17
2018-02-18T02:31:28.279Z,30.70
2018-02-18T02:33:55.872Z,31.70
2018-02-18T02:36:23.453Z,33.50
2018-02-18T02:38:51.851Z,32.67
2018-02-18T02:41:19.466Z,32.50
2018-02-18T02:43:47.052Z,32.20
2018-02-18T02:46:15.405Z,31.80
2018-02-18T02:48:42.987Z,33.83
2018-02-18T02:51:11.356Z,35.47
2018-02-18T02:53:38.911Z,33.60
2018-02-18T02:56:06.499Z,32.00
2018-02-18T02:58:34.854Z,32.77
2018-02-18T03:01:02.493Z,34.37
2018-02-18T03:03:30.174Z,34.73
2018-02-18T03:05:58.551Z,32.20
2018-02-18T03:08:26.160Z,30.93
2018-02-18T03:10:53.717Z,29.97
2018-02-18T03:13:22.184Z,32.60
2018-02-18T03:15:50.533Z,35.30
2018-02-18T03:18:18.158Z,33.60
2018-02-18T03:20:45.723Z,35.77
2018-02-18T03:23:13.279Z,34.07
2018-02-18T03:25:40.861Z,33.20
2018-02-18T03:28:08.432Z,36.27
2018-02-18T03:30:36.043Z,38.07
2018-02-18T03:33:03.638Z,34.70
2018-02-18T03:35:31.315Z,30.10
2018-02-18T03:37:58.925Z,34.20
2018-02-18T03:40:26.521Z,32.50
2018-02-18T03:42:54.097Z,33.63
2018-02-18T03:45:21.689Z,36.43
2018-02-18T03:47:49.309Z,33.73
2018-02-18T03:50:16.883Z,32.47
2018-02-18T03:52:44.461Z,33.07
2018-02-18T03:55:12.035Z,34.50
2018-02-18T03:57:39.619Z,31.90
2018-02-18T04:00:07.236Z,32.75
2018-02-18T04:02:35.567Z,34.70
2018-02-18T04:05:03.306Z,33.23
2018-02-18T04:07:30.935Z,33.05
2018-02-18T04:09:59.288Z,33.27
2018-02-18T04:12:26.906Z,32.85
2018-02-18T04:14:54.497Z,32.60
2018-02-18T04:17:22.067Z,33.90
2018-02-18T04:19:49.703Z,37.30
2018-02-18T04:22:17.282Z,32.87
2018-02-18T04:24:44.892Z,35.80
2018-02-18T04:27:12.492Z,33.77
2018-02-18T04:29:40.110Z,34.67
2018-02-18T04:32:07.677Z,34.93
2018-02-18T04:34:35.272Z,35.13
2018-02-18T04:37:02.858Z,34.63
2018-02-18T04:39:32.133Z,37.22
2018-02-18T04:41:59.739Z,34.30
2018-02-18T04:44:28.085Z,36.92
2018-02-18T04:46:55.700Z,40.03
2018-02-18T04:49:23.304Z,34.38
2018-02-18T04:51:50.921Z,33.55
2018-02-18T04:54:18.490Z,36.42
2018-02-18T04:56:46.099Z,35.92
2018-02-18T04:59:13.679Z,34.57
2018-02-18T05:01:42.024Z,33.55
2018-02-18T05:04:09.640Z,34.08
2018-02-18T05:06:37.210Z,32.13
2018-02-18T05:09:04.820Z,36.55
2018-02-18T05:11:33.208Z,35.25
2018-02-18T05:14:01.562Z,34.50
2018-02-18T05:16:29.188Z,32.85
2018-02-18T05:18:57.639Z,30.57
2018-02-18T05:21:26.008Z,34.07
2018-02-18T05:23:54.353Z,34.00
2018-02-18T05:26:21.956Z,32.93
2018-02-18T05:28:50.310Z,33.43
2018-02-18T05:31:18.707Z,34.73
2018-02-18T05:33:47.040Z,31.33
2018-02-18T05:36:14.638Z,32.60
2018-02-18T05:38:42.230Z,32.57
2018-02-18T05:41:09.823Z,29.00
2018-02-18T05:43:37.410Z,31.90
2018-02-18T05:46:04.973Z,28.20
2018-02-18T05:48:32.571Z,30.63
2018-02-18T05:51:00.158Z,29.10
2018-02-18T05:53:27.779Z,27.53
2018-02-18T05:55:56.124Z,30.10
2018-02-18T05:58:23.715Z,29.60
2018-02-18T06:00:51.323Z,29.60
2018-02-18T06:03:18.899Z,29.33
2018-02-18T06:05:46.516Z,27.33
2018-02-18T06:08:14.070Z,28.87
2018-02-18T06:10:41.796Z,29.37
2018-02-18T06:13:10.160Z,29.00
2018-02-18T06:15:37.830Z,30.40
2018-02-18T06:18:05.451Z,30.83
2018-02-18T06:20:34.048Z,29.00
2018-02-18T06:23:01.701Z,33.47
2018-02-18T06:25:29.264Z,34.00
2018-02-18T06:27:56.883Z,33.20
2018-02-18T06:30:25.227Z,34.17
2018-02-18T06:32:52.846Z,32.97
2018-02-18T06:35:20.468Z,34.77
2018-02-18T06:37:48.808Z,35.72
2018-02-18T06:40:16.398Z,32.90
2018-02-18T06:42:43.991Z,32.40
2018-02-18T06:45:11.612Z,33.17
2018-02-18T06:47:39.245Z,32.22
2018-02-18T06:50:06.880Z,33.27
2018-02-18T06:52:34.464Z,40.43
2018-02-18T06:55:02.886Z,36.67
2018-02-18T06:57:31.260Z,33.93
2018-02-18T06:59:58.816Z,35.87
2018-02-18T07:02:26.472Z,34.03
2018-02-18T07:04:54.063Z,35.40
2018-02-18T07:07:22.440Z,35.00
2018-02-18T07:09:50.786Z,30.30
2018-02-18T07:12:18.372Z,31.70
2018-02-18T07:14:46.779Z,31.20
2018-02-18T07:17:14.372Z,30.57
2018-02-18T07:19:42.977Z,32.00
2018-02-18T07:22:10.547Z,31.27
2018-02-18T07:24:38.224Z,32.03
2018-02-18T07:27:06.562Z,32.27
2018-02-18T07:29:34.149Z,33.00
2018-02-18T07:32:01.870Z,31.87
2018-02-18T07:37:04.025Z,32.00
2018-02-18T07:39:31.719Z,32.10
2018-02-18T07:41:59.287Z,32.67
2018-02-18T07:44:26.866Z,34.50
2018-02-18T07:46:54.479Z,32.83
2018-02-18T07:49:22.055Z,33.50
2018-02-18T07:51:49.648Z,31.60
2018-02-18T07:54:17.231Z,32.53
2018-02-18T07:56:45.601Z,30.73
2018-02-18T07:59:13.960Z,36.00
2018-02-18T08:01:42.342Z,33.37
2018-02-18T08:04:10.916Z,30.73
2018-02-18T08:06:39.403Z,30.70
2018-02-18T08:09:07.847Z,31.00
2018-02-18T08:11:35.426Z,32.90
2018-02-18T08:14:03.005Z,31.87
2018-02-18T08:16:31.686Z,30.07
2018-02-18T08:19:00.066Z,29.50
2018-02-18T08:21:27.675Z,31.20
2018-02-18T08:23:55.302Z,31.37
2018-02-18T08:26:22.924Z,33.70
2018-02-18T08:28:50.503Z,33.40
2018-02-18T08:31:18.113Z,30.17
2018-02-18T08:33:46.610Z,31.53
2018-02-18T08:36:14.254Z,29.70
2018-02-18T08:38:41.867Z,32.87
2018-02-18T08:41:09.431Z,30.30
2018-02-18T08:43:37.996Z,29.10
2018-02-18T08:46:05.591Z,27.77
2018-02-18T08:48:33.254Z,30.23
2018-02-18T08:51:00.821Z,28.97
2018-02-18T08:53:29.156Z,28.50
2018-02-18T08:55:56.751Z,30.43
2018-02-18T08:58:24.316Z,26.43
2018-02-18T09:00:52.839Z,28.97
2018-02-18T09:03:20.416Z,27.10
2018-02-18T09:05:48.011Z,28.47
2018-02-18T09:08:16.560Z,28.00
2018-02-18T09:10:44.124Z,25.10
2018-02-18T09:13:11.715Z,27.60
2018-02-18T09:15:39.277Z,26.57
2018-02-18T09:18:06.880Z,27.30
2018-02-18T09:20:34.447Z,29.00
2018-02-18T09:23:02.038Z,27.90
2018-02-18T09:25:29.617Z,25.57
2018-02-18T09:27:57.287Z,25.90
2018-02-18T09:30:24.879Z,28.07
2018-02-18T09:32:52.517Z,28.43
2018-02-18T09:35:20.910Z,27.40
2018-02-18T09:37:48.485Z,26.57
2018-02-18T09:40:16.080Z,25.43
2018-02-18T09:42:43.652Z,26.57
2018-02-18T09:45:11.238Z,28.30
2018-02-18T09:47:39.582Z,29.03
2018-02-18T09:50:07.152Z,28.10
2018-02-18T09:52:34.780Z,26.03
2018-02-18T09:55:03.352Z,27.93
2018-02-18T09:57:30.956Z,27.83
2018-02-18T09:59:59.536Z,26.40
2018-02-18T10:02:27.139Z,27.60
2018-02-18T10:04:54.760Z,26.10
2018-02-18T10:07:22.337Z,29.17
2018-02-18T10:09:50.702Z,29.20
2018-02-18T10:12:21.819Z,30.90
2018-02-18T10:14:49.475Z,26.60
2018-02-18T10:17:17.049Z,25.70
2018-02-18T10:19:44.655Z,26.43
2018-02-18T10:22:12.226Z,27.70
2018-02-18T10:24:39.799Z,26.93
2018-02-18T10:27:07.407Z,27.97
2018-02-18T10:29:34.989Z,27.50
2018-02-18T10:32:03.437Z,27.67
2018-02-18T10:34:31.100Z,25.17
2018-02-18T10:36:59.678Z,25.37
2018-02-18T10:39:27.255Z,22.27
2018-02-18T10:41:55.643Z,21.30
2018-02-18T10:44:24.005Z,16.07
2018-02-18T10:46:54.309Z,17.47
2018-02-18T10:49:21.971Z,19.70
2018-02-18T10:51:49.548Z,20.87
2018-02-18T10:54:17.182Z,20.70
2018-02-18T10:56:44.750Z,20.33
2018-02-18T10:59:14.273Z,23.27
2018-02-18T11:01:41.874Z,22.13
2018-02-18T11:04:09.493Z,20.03
2018-02-18T11:06:37.075Z,21.63
2018-02-18T11:09:04.667Z,18.53
2018-02-18T11:11:33.298Z,16.90
2018-02-18T11:14:00.871Z,17.27
2018-02-18T11:16:28.455Z,17.00
2018-02-18T11:18:56.067Z,17.40
2018-02-18T11:21:23.672Z,17.00
2018-02-18T11:23:51.275Z,19.60
2018-02-18T11:26:18.888Z,17.83
2018-02-18T11:28:47.287Z,21.70
2018-02-18T11:31:14.855Z,19.90
2018-02-18T11:33:42.431Z,19.73
2018-02-18T11:36:10.030Z,18.50
2018-02-18T11:38:37.623Z,18.27
2018-02-18T11:41:05.492Z,17.77
2018-02-18T11:43:33.100Z,17.67
2018-02-18T11:46:00.676Z,18.67
2018-02-18T11:48:29.143Z,17.13
2018-02-18T11:50:56.759Z,17.47
2018-02-18T11:53:24.330Z,18.70
2018-02-18T11:55:51.978Z,18.57
2018-02-18T11:58:19.564Z,21.80
2018-02-18T12:00:47.136Z,18.60
2018-02-18T12:03:14.742Z,18.40
2018-02-18T12:05:43.480Z,18.00
2018-02-18T12:08:11.895Z,19.70
2018-02-18T12:10:41.247Z,17.43
2018-02-18T12:13:08.824Z,20.17
2018-02-18T12:15:36.443Z,20.40
2018-02-18T12:18:04.031Z,20.20
2018-02-18T12:20:31.640Z,18.90
2018-02-18T12:22:59.966Z,19.00
2018-02-18T12:25:27.578Z,21.87
2018-02-18T12:27:55.922Z,19.90
2018-02-18T12:30:23.502Z,20.63
2018-02-18T12:32:51.183Z,22.47
2018-02-18T12:35:18.791Z,21.80
2018-02-18T12:37:46.394Z,18.80
2018-02-18T12:40:14.027Z,18.23
2018-02-18T12:42:41.615Z,18.87
2018-02-18T12:45:09.201Z,20.20
2018-02-18T12:47:36.798Z,17.80
2018-02-18T12:50:04.364Z,17.33
2018-02-18T12:52:31.963Z,17.00
2018-02-18T12:55:00.342Z,17.90
2018-02-18T12:57:28.737Z,19.00
2018-02-18T12:59:56.326Z,18.37
2018-02-18T13:02:24.272Z,19.33
2018-02-18T13:04:51.853Z,19.30
2018-02-18T13:07:19.433Z,19.10
2018-02-18T13:09:47.019Z,17.73
2018-02-18T13:12:14.596Z,18.27
2018-02-18T13:14:42.973Z,18.00
2018-02-18T13:17:11.322Z,20.57
2018-02-18T13:19:41.953Z,19.50
2018-02-18T13:22:09.566Z,21.03
2018-02-18T13:24:37.148Z,20.87
2018-02-18T13:27:04.838Z,18.20
2018-02-18T13:29:33.424Z,20.80
2018-02-18T13:32:00.992Z,18.43
2018-02-18T13:34:33.872Z,18.80
2018-02-18T13:37:01.448Z,19.30
2018-02-18T13:39:29.833Z,18.27
2018-02-18T13:41:57.427Z,19.07
2018-02-18T13:44:25.003Z,19.43
2018-02-18T13:46:53.603Z,20.40
2018-02-18T13:49:21.240Z,19.03
2018-02-18T13:51:48.841Z,20.00
2018-02-18T13:54:16.449Z,19.37
2018-02-18T13:56:44.059Z,19.27
2018-02-18T13:59:11.646Z,20.60
2018-02-18T14:01:39.229Z,21.43
2018-02-18T14:04:06.863Z,22.33
2018-02-18T14:06:35.220Z,21.97
2018-02-18T14:09:02.781Z,20.60
2018-02-18T14:11:33.798Z,19.97
2018-02-18T14:14:01.371Z,19.07
2018-02-18T14:16:29.872Z,22.27
2018-02-18T14:18:58.200Z,21.30
2018-02-18T14:21:25.781Z,20.97
2018-02-18T14:23:53.859Z,18.07
2018-02-18T14:26:21.433Z,21.20
2018-02-18T14:28:49.014Z,23.00
2018-02-18T14:31:16.627Z,20.83
2018-02-18T14:33:44.373Z,21.90
2018-02-18T14:36:11.981Z,21.97
2018-02-18T14:38:40.322Z,21.03
2018-02-18T14:41:07.915Z,19.67
2018-02-18T14:43:47.380Z,18.43
2018-02-18T14:46:26.947Z,17.80
2018-02-18T14:49:07.396Z,20.70
2018-02-18T14:51:47.813Z,18.83
2018-02-18T14:54:27.983Z,21.10
2018-02-18T14:57:02.227Z,20.60
2018-02-18T14:59:29.833Z,18.87
2018-02-18T15:01:57.413Z,21.17
2018-02-18T15:04:25.742Z,19.73
2018-02-18T15:06:53.340Z,20.10
2018-02-18T15:09:20.912Z,20.23
2018-02-18T15:11:49.333Z,19.13
2018-02-18T15:14:19.555Z,20.20
2018-02-18T15:16:48.034Z,20.67
2018-02-18T15:19:15.626Z,21.80
2018-02-18T15:21:44.191Z,21.70
2018-02-18T15:24:11.784Z,21.07
2018-02-18T15:26:39.349Z,21.13
2018-02-18T15:29:06.938Z,21.17
2018-02-18T15:31:34.549Z,23.00
2018-02-18T15:34:02.138Z,20.40
2018-02-18T15:36:30.521Z,24.00
2018-02-18T15:38:58.888Z,21.93
2018-02-18T15:41:26.527Z,23.10
2018-02-18T15:43:54.121Z,22.90
2018-02-18T15:46:22.594Z,23.20
2018-02-18T15:48:50.204Z,22.17
2018-02-18T15:51:17.777Z,20.83
2018-02-18T15:53:45.366Z,19.87
2018-02-18T15:56:12.940Z,22.00
2018-02-18T15:58:41.290Z,22.13
2018-02-18T16:01:08.912Z,20.67
2018-02-18T16:03:36.494Z,20.53
2018-02-18T16:06:04.042Z,20.70
2018-02-18T16:08:31.654Z,21.33
2018-02-18T16:10:59.246Z,21.30
2018-02-18T16:13:26.830Z,20.87
2018-02-18T16:15:54.416Z,21.87
2018-02-18T16:18:22.000Z,20.87
2018-02-18T16:20:50.364Z,19.23
2018-02-18T16:23:17.999Z,21.23
2018-02-18T16:25:45.558Z,21.47
2018-02-18T16:28:13.151Z,22.30
2018-02-18T16:30:41.511Z,21.43
2018-02-18T16:33:09.099Z,21.63
2018-02-18T16:35:37.432Z,20.83
2018-02-18T16:38:05.041Z,22.97
2018-02-18T16:40:33.378Z,21.03
2018-02-18T16:43:00.987Z,23.80
2018-02-18T16:45:29.343Z,22.03
2018-02-18T16:47:56.926Z,21.00
2018-02-18T16:50:25.307Z,21.93
2018-02-18T16:52:52.873Z,22.77
2018-02-18T16:55:20.469Z,20.93
2018-02-18T16:57:48.064Z,21.47
2018-02-18T17:00:15.651Z,20.63
2018-02-18T17:02:43.242Z,18.97
2018-02-18T17:05:10.881Z,20.77
2018-02-18T17:07:39.186Z,19.90
2018-02-18T17:10:06.769Z,21.70
2018-02-18T17:12:34.402Z,21.67
2018-02-18T17:15:02.017Z,21.17
2018-02-18T17:17:30.346Z,22.40
2018-02-18T17:19:57.903Z,20.43
2018-02-18T17:22:25.506Z,20.97
2018-02-18T17:24:53.865Z,22.97
2018-02-18T17:27:21.493Z,20.87
2018-02-18T17:29:49.086Z,22.43
2018-02-18T17:32:16.679Z,21.63
2018-02-18T17:34:45.022Z,20.40
2018-02-18T17:37:12.619Z,22.23
2018-02-18T17:39:40.978Z,22.30
2018-02-18T17:42:08.600Z,21.90
2018-02-18T17:44:36.176Z,21.17
2018-02-18T17:47:03.751Z,20.97
2018-02-18T17:49:31.347Z,27.30
2018-02-18T17:51:58.919Z,22.40
2018-02-18T17:54:26.622Z,21.97
2018-02-18T17:56:54.189Z,21.80
2018-02-18T17:59:21.772Z,21.10
2018-02-18T18:01:50.133Z,20.20
2018-02-18T18:04:17.713Z,20.40
2018-02-18T18:06:46.092Z,19.70
2018-02-18T18:09:14.433Z,20.43
2018-02-18T18:11:42.046Z,19.77
2018-02-18T18:14:09.633Z,19.90
2018-02-18T18:16:37.204Z,20.13
2018-02-18T18:19:04.807Z,20.40
2018-02-18T18:21:33.132Z,20.77
2018-02-18T18:24:00.708Z,21.47
2018-02-18T18:26:28.327Z,22.93
2018-02-18T18:28:55.959Z,20.63
2018-02-18T18:31:24.294Z,20.37
2018-02-18T18:33:51.857Z,20.00
2018-02-18T18:36:19.445Z,21.90
2018-02-18T18:38:47.023Z,21.57
2018-02-18T18:41:15.383Z,23.30
2018-02-18T18:43:42.983Z,24.00
2018-02-18T18:46:10.599Z,21.87
2018-02-18T18:48:38.172Z,24.07
2018-02-18T18:51:05.758Z,21.93
2018-02-18T18:53:33.328Z,24.10
2018-02-18T18:56:00.947Z,25.77
2018-02-18T18:58:28.520Z,25.60
2018-02-18T19:00:56.861Z,24.03
2018-02-18T19:03:24.481Z,23.07
2018-02-18T19:05:52.069Z,23.23
2018-02-18T19:08:19.648Z,24.67
2018-02-18T19:10:47.244Z,22.30
2018-02-18T19:13:15.607Z,22.73
2018-02-18T19:15:43.198Z,26.10
2018-02-18T19:18:10.809Z,29.63
2018-02-18T19:20:38.380Z,28.47
2018-02-18T19:23:05.982Z,29.00
2018-02-18T19:25:33.572Z,29.30
2018-02-18T19:28:01.133Z,31.23
2018-02-18T19:30:28.736Z,26.47
2018-02-18T19:32:57.098Z,22.07
2018-02-18T19:35:24.710Z,25.10
2018-02-18T19:37:52.284Z,21.47
2018-02-18T19:40:19.887Z,21.83
2018-02-18T19:42:47.483Z,22.40
2018-02-18T19:45:15.087Z,22.60
2018-02-18T19:47:42.679Z,22.00
2018-02-18T19:50:11.032Z,23.27
2018-02-18T19:52:38.633Z,23.33
2018-02-18T19:55:06.979Z,22.60
2018-02-18T19:57:35.563Z,22.03
2018-02-18T20:00:03.149Z,20.80
2018-02-18T20:02:31.498Z,21.50
2018-02-18T20:04:59.108Z,22.23
2018-02-18T20:07:26.680Z,26.13
2018-02-18T20:09:54.300Z,22.87
2018-02-18T20:12:22.633Z,24.33
2018-02-18T20:14:50.229Z,21.37
2018-02-18T20:17:17.798Z,21.90
2018-02-18T20:19:46.126Z,24.80
2018-02-18T20:22:13.724Z,22.87
2018-02-18T20:24:41.295Z,19.20
2018-02-18T20:27:09.646Z,20.13
2018-02-18T20:29:37.228Z,19.80
2018-02-18T20:32:05.609Z,19.07
2018-02-18T20:34:33.988Z,19.97
2018-02-18T20:37:02.367Z,18.93
2018-02-18T20:39:30.723Z,20.40
2018-02-18T20:41:58.346Z,22.17
2018-02-18T20:44:25.941Z,22.23
2018-02-18T20:46:53.523Z,21.70
2018-02-18T20:49:21.112Z,21.33
2018-02-18T20:51:48.718Z,22.37
2018-02-18T20:54:16.283Z,21.30
2018-02-18T20:56:43.902Z,22.67
2018-02-18T20:59:11.477Z,22.67
2018-02-18T21:01:39.057Z,21.97
2018-02-18T21:04:06.660Z,23.27
2018-02-18T21:06:34.981Z,24.20
2018-02-18T21:09:02.571Z,27.90
2018-02-18T21:11:30.140Z,27.20
2018-02-18T21:13:57.741Z,25.50
2018-02-18T21:16:26.237Z,23.13
2018-02-18T21:18:53.831Z,24.50
2018-02-18T21:21:21.404Z,22.10
2018-02-18T21:23:49.764Z,24.40
2018-02-18T21:26:17.363Z,23.20
2018-02-18T21:28:44.940Z,24.90
2018-02-18T21:31:12.521Z,21.97
2018-02-18T21:33:40.088Z,24.60
2018-02-18T21:36:07.796Z,23.40
2018-02-18T21:38:35.384Z,22.07
2018-02-18T21:41:02.937Z,22.73
2018-02-18T21:43:30.525Z,22.10
2018-02-18T21:45:58.097Z,22.80
2018-02-18T21:48:25.697Z,23.27
2018-02-18T21:50:54.037Z,21.53
2018-02-18T21:53:21.622Z,21.00
2018-02-18T21:55:49.200Z,25.27
2018-02-18T21:58:17.593Z,21.33
2018-02-18T22:00:45.156Z,21.30
2018-02-18T22:03:12.760Z,20.70
2018-02-18T22:05:40.349Z,21.90
2018-02-18T22:08:08.690Z,19.17
2018-02-18T22:10:36.291Z,20.23
2018-02-18T22:13:04.646Z,22.10
2018-02-18T22:15:32.227Z,19.87
2018-02-18T22:18:00.562Z,18.23
2018-02-18T22:20:28.180Z,18.13
2018-02-18T22:22:55.764Z,19.10
2018-02-18T22:25:23.356Z,20.73
2018-02-18T22:30:24.881Z,19.23
2018-02-18T22:32:52.466Z,17.13
2018-02-18T22:35:20.032Z,21.37
2018-02-18T22:37:47.632Z,20.43
2018-02-18T22:40:15.278Z,18.33
2018-02-18T22:42:42.831Z,18.70
2018-02-18T22:45:10.436Z,22.10
2018-02-18T22:47:38.004Z,22.10
2018-02-18T22:50:05.570Z,20.17
2018-02-18T22:52:33.155Z,21.60
2018-02-18T22:55:00.723Z,19.23
2018-02-18T22:57:28.297Z,22.03
2018-02-18T22:59:55.888Z,20.57
2018-02-18T23:02:23.469Z,20.30
2018-02-18T23:04:51.067Z,21.30
2018-02-18T23:07:18.648Z,17.57
2018-02-18T23:09:46.212Z,17.60
2018-02-18T23:12:14.576Z,16.87
2018-02-18T23:14:42.144Z,16.20
2018-02-18T23:17:10.494Z,16.60
2018-02-18T23:19:38.071Z,16.33
2018-02-18T23:22:05.668Z,19.40
2018-02-18T23:24:33.276Z,17.73
2018-02-18T23:27:00.839Z,18.43
2018-02-18T23:29:28.393Z,17.43
2018-02-18T23:31:56.000Z,17.10
2018-02-18T23:34:24.339Z,18.83
2018-02-18T23:36:51.945Z,17.47
2018-02-18T23:39:19.497Z,17.10
2018-02-18T23:41:47.840Z,17.07
2018-02-18T23:44:15.422Z,17.37
2018-02-18T23:46:43.013Z,16.30
2018-02-18T23:49:10.592Z,16.43
2018-02-18T23:51:38.214Z,18.07
2018-02-18T23:54:06.539Z,16.70
2018-02-18T23:56:34.116Z,17.53
2018-02-18T23:59:01.722Z,16.17
